Topping, Virginia
Current Conditions -  °F | °C
As of 6:35 AM on Friday 24 Oct 2014 (Local Time) from KW75 Reporting Station
Clear Clear  
Wind Chill: 52°   Ceiling: Unl
Heat Index: 52°   Visibility: 10mi
Dew Point: 44°   Wind: 5mph
Humidity: 75%   Direction: 290°WNW
Pressure: 29.94"   Gusts: NA
Location:  37.59°N, 76.47°W
Report Text: KW75 241035Z AUTO 29004KT 10SM CLR 11/07 A2994 RMK AO1 T01100067
Loading
Personal Weather Stations






























Interactive Weather Map
Tropical Storm Tracking
New forecast layout! Learn more

10-Day Weather Forecast

Advertisements
Track Severe Weather on mobile